sensor_id;sensor_type;location;lat;lon;timestamp;P1;durP1;ratioP1;P2;durP2;ratioP2
8944;SDS011;4507;40.232;29.132;2023-02-28T00:00:07;80.87;;;43.17;;
8944;SDS011;4507;40.232;29.132;2023-02-28T00:02:38;99.93;;;50.27;;
8944;SDS011;4507;40.232;29.132;2023-02-28T00:05:09;105.73;;;50.73;;
8944;SDS011;4507;40.232;29.132;2023-02-28T00:07:40;114.80;;;53.53;;
8944;SDS011;4507;40.232;29.132;2023-02-28T00:10:10;123.23;;;54.30;;
8944;SDS011;4507;40.232;29.132;2023-02-28T00:12:40;100.47;;;49.67;;
8944;SDS011;4507;40.232;29.132;2023-02-28T00:15:10;82.17;;;36.63;;
8944;SDS011;4507;40.232;29.132;2023-02-28T00:17:43;67.17;;;30.33;;
8944;SDS011;4507;40.232;29.132;2023-02-28T00:20:14;47.17;;;21.37;;
8944;SDS011;4507;40.232;29.132;2023-02-28T00:22:44;40.73;;;19.83;;
8944;SDS011;4507;40.232;29.132;2023-02-28T00:25:14;65.27;;;31.97;;
8944;SDS011;4507;40.232;29.132;2023-02-28T00:27:45;72.33;;;36.40;;
8944;SDS011;4507;40.232;29.132;2023-02-28T00:30:16;70.67;;;36.90;;
8944;SDS011;4507;40.232;29.132;2023-02-28T00:32:47;84.53;;;48.20;;
8944;SDS011;4507;40.232;29.132;2023-02-28T00:35:17;85.47;;;44.27;;
8944;SDS011;4507;40.232;29.132;2023-02-28T00:37:47;94.90;;;50.80;;
8944;SDS011;4507;40.232;29.132;2023-02-28T00:40:16;120.23;;;65.10;;
8944;SDS011;4507;40.232;29.132;2023-02-28T00:42:45;108.23;;;56.90;;
8944;SDS011;4507;40.232;29.132;2023-02-28T00:45:14;136.57;;;76.57;;
8944;SDS011;4507;40.232;29.132;2023-02-28T00:47:43;106.50;;;61.77;;
8944;SDS011;4507;40.232;29.132;2023-02-28T00:52:45;83.57;;;47.07;;
8944;SDS011;4507;40.232;29.132;2023-02-28T00:55:14;82.63;;;46.97;;
8944;SDS011;4507;40.232;29.132;2023-02-28T00:57:45;82.70;;;46.07;;
8944;SDS011;4507;40.232;29.132;2023-02-28T01:00:14;84.10;;;48.90;;
8944;SDS011;4507;40.232;29.132;2023-02-28T01:02:43;74.03;;;45.00;;
8944;SDS011;4507;40.232;29.132;2023-02-28T01:05:13;88.70;;;49.67;;
8944;SDS011;4507;40.232;29.132;2023-02-28T01:07:45;69.80;;;40.00;;
8944;SDS011;4507;40.232;29.132;2023-02-28T01:10:15;78.83;;;40.97;;
8944;SDS011;4507;40.232;29.132;2023-02-28T01:12:44;79.37;;;45.40;;
8944;SDS011;4507;40.232;29.132;2023-02-28T01:15:14;116.23;;;64.50;;
8944;SDS011;4507;40.232;29.132;2023-02-28T01:17:44;116.17;;;82.73;;
8944;SDS011;4507;40.232;29.132;2023-02-28T01:20:13;190.87;;;152.87;;
8944;SDS011;4507;40.232;29.132;2023-02-28T01:22:42;186.23;;;143.50;;
8944;SDS011;4507;40.232;29.132;2023-02-28T01:25:13;98.53;;;63.53;;
8944;SDS011;4507;40.232;29.132;2023-02-28T01:27:42;96.33;;;62.40;;
8944;SDS011;4507;40.232;29.132;2023-02-28T01:30:12;58.97;;;42.30;;
8944;SDS011;4507;40.232;29.132;2023-02-28T01:32:59;50.90;;;35.23;;
8944;SDS011;4507;40.232;29.132;2023-02-28T01:35:31;59.47;;;34.37;;
8944;SDS011;4507;40.232;29.132;2023-02-28T01:38:01;58.43;;;36.30;;
8944;SDS011;4507;40.232;29.132;2023-02-28T01:40:48;67.50;;;43.13;;
8944;SDS011;4507;40.232;29.132;2023-02-28T01:43:20;97.37;;;54.60;;
8944;SDS011;4507;40.232;29.132;2023-02-28T01:45:51;95.73;;;64.23;;
8944;SDS011;4507;40.232;29.132;2023-02-28T01:48:21;112.50;;;80.83;;
8944;SDS011;4507;40.232;29.132;2023-02-28T01:50:54;99.03;;;66.47;;
8944;SDS011;4507;40.232;29.132;2023-02-28T01:53:27;87.10;;;59.30;;
8944;SDS011;4507;40.232;29.132;2023-02-28T01:56:06;83.77;;;55.00;;
8944;SDS011;4507;40.232;29.132;2023-02-28T01:58:39;81.27;;;52.47;;
8944;SDS011;4507;40.232;29.132;2023-02-28T02:01:08;97.13;;;62.80;;
8944;SDS011;4507;40.232;29.132;2023-02-28T02:03:48;97.60;;;66.00;;
8944;SDS011;4507;40.232;29.132;2023-02-28T02:06:34;96.87;;;67.63;;
8944;SDS011;4507;40.232;29.132;2023-02-28T02:09:09;103.13;;;66.37;;
8944;SDS011;4507;40.232;29.132;2023-02-28T02:11:42;96.30;;;67.30;;
8944;SDS011;4507;40.232;29.132;2023-02-28T02:14:30;118.17;;;82.53;;
8944;SDS011;4507;40.232;29.132;2023-02-28T02:17:22;131.43;;;100.00;;
8944;SDS011;4507;40.232;29.132;2023-02-28T02:20:13;128.17;;;88.10;;
8944;SDS011;4507;40.232;29.132;2023-02-28T02:23:02;109.40;;;79.03;;
8944;SDS011;4507;40.232;29.132;2023-02-28T02:25:53;99.63;;;71.33;;
8944;SDS011;4507;40.232;29.132;2023-02-28T02:31:33;77.80;;;54.23;;
8944;SDS011;4507;40.232;29.132;2023-02-28T02:34:40;79.67;;;55.30;;
8944;SDS011;4507;40.232;29.132;2023-02-28T02:37:15;82.23;;;55.73;;
8944;SDS011;4507;40.232;29.132;2023-02-28T02:39:59;73.97;;;48.43;;
8944;SDS011;4507;40.232;29.132;2023-02-28T02:42:34;65.10;;;48.00;;
8944;SDS011;4507;40.232;29.132;2023-02-28T02:45:10;58.37;;;43.37;;
8944;SDS011;4507;40.232;29.132;2023-02-28T02:47:42;60.60;;;41.20;;
8944;SDS011;4507;40.232;29.132;2023-02-28T02:50:15;57.17;;;41.70;;
8944;SDS011;4507;40.232;29.132;2023-02-28T02:52:51;47.73;;;36.87;;
8944;SDS011;4507;40.232;29.132;2023-02-28T02:55:24;49.10;;;33.90;;
8944;SDS011;4507;40.232;29.132;2023-02-28T02:57:54;55.17;;;36.00;;
8944;SDS011;4507;40.232;29.132;2023-02-28T03:00:29;55.63;;;37.90;;
8944;SDS011;4507;40.232;29.132;2023-02-28T03:03:05;179.33;;;106.10;;
8944;SDS011;4507;40.232;29.132;2023-02-28T03:05:41;68.50;;;49.30;;
8944;SDS011;4507;40.232;29.132;2023-02-28T03:08:14;74.20;;;48.80;;
8944;SDS011;4507;40.232;29.132;2023-02-28T03:10:45;62.43;;;42.63;;
8944;SDS011;4507;40.232;29.132;2023-02-28T03:16:26;98.07;;;61.77;;
8944;SDS011;4507;40.232;29.132;2023-02-28T03:19:03;117.27;;;85.93;;
8944;SDS011;4507;40.232;29.132;2023-02-28T03:21:58;79.93;;;57.93;;
8944;SDS011;4507;40.232;29.132;2023-02-28T03:24:39;103.87;;;73.50;;
8944;SDS011;4507;40.232;29.132;2023-02-28T03:27:15;94.07;;;64.30;;
8944;SDS011;4507;40.232;29.132;2023-02-28T03:29:50;98.63;;;67.33;;
8944;SDS011;4507;40.232;29.132;2023-02-28T03:32:26;128.17;;;86.93;;
8944;SDS011;4507;40.232;29.132;2023-02-28T03:34:58;131.70;;;88.50;;
8944;SDS011;4507;40.232;29.132;2023-02-28T03:37:35;164.43;;;103.10;;
8944;SDS011;4507;40.232;29.132;2023-02-28T03:40:27;165.93;;;105.50;;
8944;SDS011;4507;40.232;29.132;2023-02-28T03:43:02;225.60;;;129.43;;
8944;SDS011;4507;40.232;29.132;2023-02-28T03:45:36;236.07;;;132.47;;
8944;SDS011;4507;40.232;29.132;2023-02-28T03:48:08;237.93;;;131.33;;
8944;SDS011;4507;40.232;29.132;2023-02-28T03:50:43;194.73;;;113.47;;
8944;SDS011;4507;40.232;29.132;2023-02-28T03:53:18;189.10;;;115.90;;
8944;SDS011;4507;40.232;29.132;2023-02-28T03:55:49;182.73;;;109.67;;
8944;SDS011;4507;40.232;29.132;2023-02-28T03:58:24;176.13;;;107.17;;
8944;SDS011;4507;40.232;29.132;2023-02-28T04:00:58;150.93;;;99.30;;
8944;SDS011;4507;40.232;29.132;2023-02-28T04:03:35;164.13;;;102.73;;
8944;SDS011;4507;40.232;29.132;2023-02-28T04:06:04;168.47;;;104.20;;
8944;SDS011;4507;40.232;29.132;2023-02-28T04:08:37;221.07;;;120.67;;
8944;SDS011;4507;40.232;29.132;2023-02-28T04:11:26;186.17;;;106.50;;
8944;SDS011;4507;40.232;29.132;2023-02-28T04:14:00;141.53;;;82.70;;
8944;SDS011;4507;40.232;29.132;2023-02-28T04:16:29;119.97;;;70.43;;
8944;SDS011;4507;40.232;29.132;2023-02-28T04:19:01;99.30;;;57.73;;
8944;SDS011;4507;40.232;29.132;2023-02-28T04:21:33;59.47;;;40.40;;
8944;SDS011;4507;40.232;29.132;2023-02-28T04:24:07;48.93;;;31.93;;
8944;SDS011;4507;40.232;29.132;2023-02-28T04:26:41;39.73;;;25.57;;
8944;SDS011;4507;40.232;29.132;2023-02-28T04:29:13;28.87;;;19.53;;
8944;SDS011;4507;40.232;29.132;2023-02-28T04:31:46;30.10;;;19.87;;
8944;SDS011;4507;40.232;29.132;2023-02-28T04:34:15;34.40;;;20.67;;
8944;SDS011;4507;40.232;29.132;2023-02-28T04:36:45;30.20;;;20.43;;
8944;SDS011;4507;40.232;29.132;2023-02-28T04:39:35;32.60;;;20.47;;
8944;SDS011;4507;40.232;29.132;2023-02-28T04:42:05;31.40;;;21.43;;
8944;SDS011;4507;40.232;29.132;2023-02-28T04:44:34;30.53;;;21.30;;
8944;SDS011;4507;40.232;29.132;2023-02-28T04:47:03;35.23;;;22.27;;
8944;SDS011;4507;40.232;29.132;2023-02-28T04:49:32;36.90;;;22.77;;
8944;SDS011;4507;40.232;29.132;2023-02-28T04:52:01;39.47;;;23.63;;
8944;SDS011;4507;40.232;29.132;2023-02-28T04:54:30;35.70;;;22.37;;
8944;SDS011;4507;40.232;29.132;2023-02-28T04:57:00;43.80;;;29.30;;
8944;SDS011;4507;40.232;29.132;2023-02-28T04:59:31;44.30;;;27.57;;
8944;SDS011;4507;40.232;29.132;2023-02-28T05:02:04;45.30;;;28.33;;
8944;SDS011;4507;40.232;29.132;2023-02-28T05:04:42;48.97;;;32.30;;
8944;SDS011;4507;40.232;29.132;2023-02-28T05:07:11;32.90;;;23.30;;
8944;SDS011;4507;40.232;29.132;2023-02-28T05:09:40;35.53;;;21.27;;
8944;SDS011;4507;40.232;29.132;2023-02-28T05:12:10;31.77;;;20.87;;
8944;SDS011;4507;40.232;29.132;2023-02-28T05:14:39;34.30;;;20.57;;
8944;SDS011;4507;40.232;29.132;2023-02-28T05:17:14;32.70;;;20.10;;
8944;SDS011;4507;40.232;29.132;2023-02-28T05:19:51;31.00;;;19.23;;
8944;SDS011;4507;40.232;29.132;2023-02-28T05:22:32;31.40;;;19.63;;
8944;SDS011;4507;40.232;29.132;2023-02-28T05:25:01;29.40;;;18.20;;
8944;SDS011;4507;40.232;29.132;2023-02-28T05:27:31;27.97;;;17.87;;
8944;SDS011;4507;40.232;29.132;2023-02-28T05:30:00;26.87;;;15.13;;
8944;SDS011;4507;40.232;29.132;2023-02-28T05:32:31;31.47;;;17.03;;
8944;SDS011;4507;40.232;29.132;2023-02-28T05:35:00;30.43;;;17.60;;
8944;SDS011;4507;40.232;29.132;2023-02-28T05:37:29;28.33;;;17.23;;
8944;SDS011;4507;40.232;29.132;2023-02-28T05:39:58;31.83;;;17.00;;
8944;SDS011;4507;40.232;29.132;2023-02-28T05:42:27;34.70;;;17.50;;
8944;SDS011;4507;40.232;29.132;2023-02-28T05:44:59;28.10;;;16.73;;
8944;SDS011;4507;40.232;29.132;2023-02-28T05:47:28;30.17;;;17.90;;
8944;SDS011;4507;40.232;29.132;2023-02-28T05:49:57;37.00;;;18.37;;
8944;SDS011;4507;40.232;29.132;2023-02-28T05:52:26;35.80;;;17.13;;
8944;SDS011;4507;40.232;29.132;2023-02-28T05:54:56;37.00;;;18.10;;
8944;SDS011;4507;40.232;29.132;2023-02-28T05:57:25;35.30;;;18.33;;
8944;SDS011;4507;40.232;29.132;2023-02-28T05:59:54;38.43;;;19.97;;
8944;SDS011;4507;40.232;29.132;2023-02-28T06:02:25;85.37;;;49.77;;
8944;SDS011;4507;40.232;29.132;2023-02-28T06:04:54;56.17;;;22.77;;
8944;SDS011;4507;40.232;29.132;2023-02-28T06:07:22;33.07;;;16.20;;
8944;SDS011;4507;40.232;29.132;2023-02-28T06:09:51;55.87;;;19.10;;
8944;SDS011;4507;40.232;29.132;2023-02-28T06:12:20;38.00;;;19.73;;
8944;SDS011;4507;40.232;29.132;2023-02-28T06:14:49;36.57;;;17.17;;
8944;SDS011;4507;40.232;29.132;2023-02-28T06:17:19;58.67;;;19.33;;
8944;SDS011;4507;40.232;29.132;2023-02-28T06:19:51;83.57;;;23.13;;
8944;SDS011;4507;40.232;29.132;2023-02-28T06:22:28;67.13;;;21.33;;
8944;SDS011;4507;40.232;29.132;2023-02-28T06:24:58;70.10;;;21.03;;
8944;SDS011;4507;40.232;29.132;2023-02-28T06:27:27;44.97;;;20.20;;
8944;SDS011;4507;40.232;29.132;2023-02-28T06:29:56;48.00;;;18.73;;
8944;SDS011;4507;40.232;29.132;2023-02-28T06:32:26;114.33;;;22.93;;
8944;SDS011;4507;40.232;29.132;2023-02-28T06:34:56;68.70;;;20.23;;
8944;SDS011;4507;40.232;29.132;2023-02-28T06:37:25;43.37;;;18.97;;
8944;SDS011;4507;40.232;29.132;2023-02-28T06:39:54;105.13;;;23.87;;
8944;SDS011;4507;40.232;29.132;2023-02-28T06:42:23;91.23;;;21.03;;
8944;SDS011;4507;40.232;29.132;2023-02-28T06:44:55;53.20;;;18.17;;
8944;SDS011;4507;40.232;29.132;2023-02-28T06:47:26;91.77;;;20.23;;
8944;SDS011;4507;40.232;29.132;2023-02-28T06:49:56;158.60;;;27.57;;
8944;SDS011;4507;40.232;29.132;2023-02-28T06:52:25;134.50;;;24.07;;
8944;SDS011;4507;40.232;29.132;2023-02-28T06:54:54;123.40;;;22.13;;
8944;SDS011;4507;40.232;29.132;2023-02-28T06:57:28;72.93;;;18.10;;
8944;SDS011;4507;40.232;29.132;2023-02-28T06:59:58;85.00;;;19.27;;
8944;SDS011;4507;40.232;29.132;2023-02-28T07:02:27;46.40;;;17.57;;
8944;SDS011;4507;40.232;29.132;2023-02-28T07:04:58;57.27;;;20.50;;
8944;SDS011;4507;40.232;29.132;2023-02-28T07:07:27;78.10;;;22.20;;
8944;SDS011;4507;40.232;29.132;2023-02-28T07:10:03;93.47;;;22.80;;
8944;SDS011;4507;40.232;29.132;2023-02-28T07:12:32;73.73;;;25.03;;
8944;SDS011;4507;40.232;29.132;2023-02-28T07:15:01;81.13;;;39.13;;
8944;SDS011;4507;40.232;29.132;2023-02-28T07:17:30;53.37;;;32.47;;
8944;SDS011;4507;40.232;29.132;2023-02-28T07:20:01;69.50;;;33.57;;
8944;SDS011;4507;40.232;29.132;2023-02-28T07:22:31;56.17;;;27.20;;
8944;SDS011;4507;40.232;29.132;2023-02-28T07:25:01;37.00;;;23.20;;
8944;SDS011;4507;40.232;29.132;2023-02-28T07:27:30;41.43;;;23.97;;
8944;SDS011;4507;40.232;29.132;2023-02-28T07:29:59;43.73;;;24.33;;
8944;SDS011;4507;40.232;29.132;2023-02-28T07:32:30;45.17;;;23.57;;
8944;SDS011;4507;40.232;29.132;2023-02-28T07:35:00;54.53;;;27.93;;
8944;SDS011;4507;40.232;29.132;2023-02-28T07:37:29;75.00;;;25.73;;
8944;SDS011;4507;40.232;29.132;2023-02-28T07:40:03;53.27;;;26.53;;
8944;SDS011;4507;40.232;29.132;2023-02-28T07:42:35;53.37;;;25.67;;
8944;SDS011;4507;40.232;29.132;2023-02-28T07:45:05;75.70;;;28.60;;
8944;SDS011;4507;40.232;29.132;2023-02-28T07:47:35;91.67;;;29.33;;
8944;SDS011;4507;40.232;29.132;2023-02-28T07:50:06;113.60;;;65.87;;
8944;SDS011;4507;40.232;29.132;2023-02-28T07:52:36;109.63;;;81.77;;
8944;SDS011;4507;40.232;29.132;2023-02-28T07:55:07;39.10;;;27.70;;
8944;SDS011;4507;40.232;29.132;2023-02-28T07:57:39;45.40;;;26.80;;
8944;SDS011;4507;40.232;29.132;2023-02-28T08:00:13;46.63;;;29.10;;
8944;SDS011;4507;40.232;29.132;2023-02-28T08:02:43;59.30;;;28.37;;
8944;SDS011;4507;40.232;29.132;2023-02-28T08:05:17;49.97;;;25.63;;
8944;SDS011;4507;40.232;29.132;2023-02-28T08:07:48;48.60;;;23.00;;
8944;SDS011;4507;40.232;29.132;2023-02-28T08:10:18;56.67;;;26.00;;
8944;SDS011;4507;40.232;29.132;2023-02-28T08:12:47;57.30;;;25.97;;
8944;SDS011;4507;40.232;29.132;2023-02-28T08:15:16;53.07;;;25.87;;
8944;SDS011;4507;40.232;29.132;2023-02-28T08:17:53;60.90;;;27.27;;
8944;SDS011;4507;40.232;29.132;2023-02-28T08:20:27;80.30;;;28.23;;
8944;SDS011;4507;40.232;29.132;2023-02-28T08:22:58;77.33;;;28.80;;
8944;SDS011;4507;40.232;29.132;2023-02-28T08:25:38;55.13;;;28.30;;
8944;SDS011;4507;40.232;29.132;2023-02-28T08:28:09;71.13;;;29.47;;
8944;SDS011;4507;40.232;29.132;2023-02-28T08:30:58;84.10;;;33.50;;
8944;SDS011;4507;40.232;29.132;2023-02-28T08:33:29;69.17;;;32.97;;
8944;SDS011;4507;40.232;29.132;2023-02-28T08:36:00;72.13;;;32.17;;
8944;SDS011;4507;40.232;29.132;2023-02-28T08:38:31;60.23;;;23.50;;
8944;SDS011;4507;40.232;29.132;2023-02-28T08:41:05;77.50;;;24.23;;
8944;SDS011;4507;40.232;29.132;2023-02-28T08:43:36;59.40;;;19.80;;
8944;SDS011;4507;40.232;29.132;2023-02-28T08:46:06;62.33;;;20.60;;
8944;SDS011;4507;40.232;29.132;2023-02-28T08:48:36;54.83;;;21.33;;
8944;SDS011;4507;40.232;29.132;2023-02-28T08:51:07;44.57;;;21.00;;
8944;SDS011;4507;40.232;29.132;2023-02-28T08:53:38;57.77;;;24.47;;
8944;SDS011;4507;40.232;29.132;2023-02-28T08:56:08;70.83;;;30.33;;
8944;SDS011;4507;40.232;29.132;2023-02-28T08:58:39;57.70;;;27.17;;
8944;SDS011;4507;40.232;29.132;2023-02-28T09:01:08;69.73;;;28.87;;
8944;SDS011;4507;40.232;29.132;2023-02-28T09:03:41;75.10;;;25.67;;
8944;SDS011;4507;40.232;29.132;2023-02-28T09:06:14;99.73;;;27.00;;
8944;SDS011;4507;40.232;29.132;2023-02-28T09:08:44;44.67;;;20.73;;
8944;SDS011;4507;40.232;29.132;2023-02-28T09:11:17;33.87;;;16.20;;
8944;SDS011;4507;40.232;29.132;2023-02-28T09:13:50;59.93;;;17.80;;
8944;SDS011;4507;40.232;29.132;2023-02-28T09:16:19;51.77;;;16.53;;
8944;SDS011;4507;40.232;29.132;2023-02-28T09:18:49;48.17;;;16.37;;
8944;SDS011;4507;40.232;29.132;2023-02-28T09:21:19;50.17;;;16.73;;
8944;SDS011;4507;40.232;29.132;2023-02-28T09:23:48;40.20;;;14.33;;
8944;SDS011;4507;40.232;29.132;2023-02-28T09:26:19;42.73;;;14.30;;
8944;SDS011;4507;40.232;29.132;2023-02-28T09:28:50;33.80;;;14.93;;
8944;SDS011;4507;40.232;29.132;2023-02-28T09:31:21;55.00;;;16.80;;
8944;SDS011;4507;40.232;29.132;2023-02-28T09:33:51;58.37;;;16.47;;
8944;SDS011;4507;40.232;29.132;2023-02-28T09:36:24;39.83;;;15.67;;
8944;SDS011;4507;40.232;29.132;2023-02-28T09:39:09;43.47;;;16.53;;
8944;SDS011;4507;40.232;29.132;2023-02-28T09:41:39;40.73;;;17.17;;
8944;SDS011;4507;40.232;29.132;2023-02-28T09:44:20;49.00;;;17.27;;
8944;SDS011;4507;40.232;29.132;2023-02-28T09:46:54;34.20;;;16.27;;
8944;SDS011;4507;40.232;29.132;2023-02-28T09:49:28;37.57;;;16.03;;
8944;SDS011;4507;40.232;29.132;2023-02-28T09:52:06;28.90;;;14.33;;
8944;SDS011;4507;40.232;29.132;2023-02-28T09:54:38;32.93;;;13.57;;
8944;SDS011;4507;40.232;29.132;2023-02-28T09:57:13;30.93;;;12.37;;
8944;SDS011;4507;40.232;29.132;2023-02-28T09:59:51;39.43;;;13.57;;
8944;SDS011;4507;40.232;29.132;2023-02-28T10:02:43;47.70;;;14.20;;
8944;SDS011;4507;40.232;29.132;2023-02-28T10:05:20;33.50;;;12.53;;
8944;SDS011;4507;40.232;29.132;2023-02-28T10:07:59;43.10;;;14.20;;
8944;SDS011;4507;40.232;29.132;2023-02-28T10:10:33;38.13;;;13.30;;
8944;SDS011;4507;40.232;29.132;2023-02-28T10:13:12;35.83;;;14.03;;
8944;SDS011;4507;40.232;29.132;2023-02-28T10:15:45;31.90;;;14.80;;
8944;SDS011;4507;40.232;29.132;2023-02-28T10:18:19;33.70;;;13.40;;
8944;SDS011;4507;40.232;29.132;2023-02-28T10:20:52;30.13;;;12.37;;
8944;SDS011;4507;40.232;29.132;2023-02-28T10:23:25;24.17;;;13.03;;
8944;SDS011;4507;40.232;29.132;2023-02-28T10:25:57;36.33;;;11.70;;
8944;SDS011;4507;40.232;29.132;2023-02-28T10:28:28;29.30;;;12.37;;
8944;SDS011;4507;40.232;29.132;2023-02-28T10:30:59;30.93;;;12.03;;
8944;SDS011;4507;40.232;29.132;2023-02-28T10:33:29;26.60;;;11.57;;
8944;SDS011;4507;40.232;29.132;2023-02-28T10:35:59;37.13;;;12.20;;
8944;SDS011;4507;40.232;29.132;2023-02-28T10:38:34;43.70;;;15.83;;
8944;SDS011;4507;40.232;29.132;2023-02-28T10:41:05;33.60;;;13.97;;
8944;SDS011;4507;40.232;29.132;2023-02-28T10:43:35;44.27;;;14.37;;
8944;SDS011;4507;40.232;29.132;2023-02-28T10:46:09;36.97;;;12.20;;
8944;SDS011;4507;40.232;29.132;2023-02-28T10:49:02;37.27;;;12.63;;
8944;SDS011;4507;40.232;29.132;2023-02-28T10:51:37;26.90;;;11.00;;
8944;SDS011;4507;40.232;29.132;2023-02-28T10:54:15;27.83;;;11.43;;
8944;SDS011;4507;40.232;29.132;2023-02-28T10:56:54;40.70;;;11.97;;
8944;SDS011;4507;40.232;29.132;2023-02-28T10:59:35;37.17;;;14.47;;
8944;SDS011;4507;40.232;29.132;2023-02-28T11:02:17;37.17;;;13.10;;
8944;SDS011;4507;40.232;29.132;2023-02-28T11:05:00;28.27;;;10.80;;
8944;SDS011;4507;40.232;29.132;2023-02-28T11:07:29;29.23;;;11.00;;
8944;SDS011;4507;40.232;29.132;2023-02-28T11:10:18;49.73;;;11.73;;
8944;SDS011;4507;40.232;29.132;2023-02-28T11:12:49;37.80;;;11.17;;
8944;SDS011;4507;40.232;29.132;2023-02-28T11:15:26;39.90;;;11.77;;
8944;SDS011;4507;40.232;29.132;2023-02-28T11:17:58;43.13;;;12.80;;
8944;SDS011;4507;40.232;29.132;2023-02-28T11:20:31;33.93;;;12.33;;
8944;SDS011;4507;40.232;29.132;2023-02-28T11:23:02;59.60;;;13.37;;
8944;SDS011;4507;40.232;29.132;2023-02-28T11:25:35;32.00;;;14.17;;
8944;SDS011;4507;40.232;29.132;2023-02-28T11:28:06;36.37;;;17.33;;
8944;SDS011;4507;40.232;29.132;2023-02-28T11:31:03;45.30;;;19.33;;
8944;SDS011;4507;40.232;29.132;2023-02-28T11:33:43;34.57;;;17.40;;
8944;SDS011;4507;40.232;29.132;2023-02-28T11:36:18;40.77;;;18.80;;
8944;SDS011;4507;40.232;29.132;2023-02-28T11:38:51;48.83;;;19.37;;
8944;SDS011;4507;40.232;29.132;2023-02-28T11:41:28;63.43;;;25.70;;
8944;SDS011;4507;40.232;29.132;2023-02-28T11:44:20;58.87;;;28.20;;
8944;SDS011;4507;40.232;29.132;2023-02-28T11:47:03;68.40;;;36.47;;
8944;SDS011;4507;40.232;29.132;2023-02-28T11:49:40;32.13;;;17.13;;
8944;SDS011;4507;40.232;29.132;2023-02-28T11:52:17;155.10;;;117.83;;
8944;SDS011;4507;40.232;29.132;2023-02-28T11:55:05;61.17;;;29.73;;
8944;SDS011;4507;40.232;29.132;2023-02-28T11:57:49;142.03;;;93.27;;
8944;SDS011;4507;40.232;29.132;2023-02-28T12:00:32;64.37;;;27.87;;
8944;SDS011;4507;40.232;29.132;2023-02-28T12:03:12;61.90;;;26.47;;
8944;SDS011;4507;40.232;29.132;2023-02-28T12:05:52;138.70;;;80.03;;
8944;SDS011;4507;40.232;29.132;2023-02-28T12:08:34;231.27;;;147.23;;
8944;SDS011;4507;40.232;29.132;2023-02-28T12:11:14;32.87;;;17.90;;
8944;SDS011;4507;40.232;29.132;2023-02-28T12:13:51;66.67;;;31.60;;
8944;SDS011;4507;40.232;29.132;2023-02-28T12:16:33;117.07;;;74.97;;
8944;SDS011;4507;40.232;29.132;2023-02-28T12:19:15;144.10;;;101.70;;
8944;SDS011;4507;40.232;29.132;2023-02-28T12:21:50;148.97;;;115.27;;
8944;SDS011;4507;40.232;29.132;2023-02-28T12:24:47;160.03;;;119.87;;
8944;SDS011;4507;40.232;29.132;2023-02-28T12:27:27;233.03;;;181.10;;
8944;SDS011;4507;40.232;29.132;2023-02-28T12:30:03;136.03;;;84.93;;
8944;SDS011;4507;40.232;29.132;2023-02-28T12:32:35;166.33;;;121.97;;
8944;SDS011;4507;40.232;29.132;2023-02-28T12:35:11;94.83;;;72.80;;
8944;SDS011;4507;40.232;29.132;2023-02-28T12:37:43;55.03;;;31.27;;
8944;SDS011;4507;40.232;29.132;2023-02-28T12:40:17;83.97;;;56.10;;
8944;SDS011;4507;40.232;29.132;2023-02-28T12:42:49;125.67;;;92.67;;
8944;SDS011;4507;40.232;29.132;2023-02-28T12:45:23;140.93;;;75.20;;
8944;SDS011;4507;40.232;29.132;2023-02-28T12:47:55;65.70;;;32.57;;
8944;SDS011;4507;40.232;29.132;2023-02-28T12:50:29;71.03;;;27.37;;
8944;SDS011;4507;40.232;29.132;2023-02-28T12:53:00;190.80;;;139.70;;
8944;SDS011;4507;40.232;29.132;2023-02-28T12:55:38;91.73;;;50.23;;
8944;SDS011;4507;40.232;29.132;2023-02-28T12:58:13;146.27;;;105.37;;
8944;SDS011;4507;40.232;29.132;2023-02-28T13:00:59;71.33;;;33.90;;
8944;SDS011;4507;40.232;29.132;2023-02-28T13:03:51;35.23;;;13.20;;
8944;SDS011;4507;40.232;29.132;2023-02-28T13:06:45;49.83;;;19.57;;
8944;SDS011;4507;40.232;29.132;2023-02-28T13:09:35;45.90;;;22.77;;
8944;SDS011;4507;40.232;29.132;2023-02-28T13:12:12;37.87;;;11.90;;
8944;SDS011;4507;40.232;29.132;2023-02-28T13:14:42;34.57;;;9.93;;
8944;SDS011;4507;40.232;29.132;2023-02-28T13:17:15;69.93;;;39.73;;
8944;SDS011;4507;40.232;29.132;2023-02-28T13:19:55;73.93;;;25.00;;
8944;SDS011;4507;40.232;29.132;2023-02-28T13:22:37;29.37;;;10.47;;
8944;SDS011;4507;40.232;29.132;2023-02-28T13:34:46;187.43;;;128.00;;
8944;SDS011;4507;40.232;29.132;2023-02-28T13:38:09;22.03;;;9.80;;
8944;SDS011;4507;40.232;29.132;2023-02-28T13:40:49;23.17;;;9.77;;
8944;SDS011;4507;40.232;29.132;2023-02-28T13:43:18;36.77;;;10.93;;
8944;SDS011;4507;40.232;29.132;2023-02-28T13:46:05;34.60;;;10.63;;
8944;SDS011;4507;40.232;29.132;2023-02-28T13:48:40;60.20;;;14.10;;
8944;SDS011;4507;40.232;29.132;2023-02-28T13:51:35;27.50;;;12.27;;
8944;SDS011;4507;40.232;29.132;2023-02-28T13:57:08;19.83;;;9.43;;
8944;SDS011;4507;40.232;29.132;2023-02-28T13:59:51;40.97;;;9.97;;
8944;SDS011;4507;40.232;29.132;2023-02-28T14:05:39;25.83;;;10.03;;
8944;SDS011;4507;40.232;29.132;2023-02-28T14:08:13;113.13;;;86.03;;
8944;SDS011;4507;40.232;29.132;2023-02-28T14:10:48;83.33;;;62.90;;
8944;SDS011;4507;40.232;29.132;2023-02-28T14:13:38;160.10;;;123.87;;
8944;SDS011;4507;40.232;29.132;2023-02-28T14:16:12;115.10;;;83.83;;
8944;SDS011;4507;40.232;29.132;2023-02-28T14:18:48;93.20;;;62.87;;
8944;SDS011;4507;40.232;29.132;2023-02-28T14:21:23;182.67;;;130.20;;
8944;SDS011;4507;40.232;29.132;2023-02-28T14:24:07;155.17;;;121.90;;
8944;SDS011;4507;40.232;29.132;2023-02-28T14:27:05;114.60;;;88.53;;
8944;SDS011;4507;40.232;29.132;2023-02-28T14:29:51;131.73;;;104.60;;
8944;SDS011;4507;40.232;29.132;2023-02-28T14:32:41;49.13;;;27.57;;
8944;SDS011;4507;40.232;29.132;2023-02-28T14:35:20;160.90;;;128.50;;
8944;SDS011;4507;40.232;29.132;2023-02-28T14:37:57;170.77;;;149.90;;
8944;SDS011;4507;40.232;29.132;2023-02-28T14:40:29;190.57;;;158.57;;
8944;SDS011;4507;40.232;29.132;2023-02-28T14:43:01;188.90;;;158.90;;
8944;SDS011;4507;40.232;29.132;2023-02-28T14:45:32;152.90;;;131.87;;
8944;SDS011;4507;40.232;29.132;2023-02-28T14:48:04;201.80;;;178.47;;
8944;SDS011;4507;40.232;29.132;2023-02-28T14:50:38;204.60;;;165.90;;
8944;SDS011;4507;40.232;29.132;2023-02-28T14:53:09;112.17;;;95.20;;
8944;SDS011;4507;40.232;29.132;2023-02-28T14:55:48;28.20;;;15.57;;
8944;SDS011;4507;40.232;29.132;2023-02-28T14:58:21;39.40;;;21.93;;
8944;SDS011;4507;40.232;29.132;2023-02-28T15:00:53;42.40;;;25.60;;
8944;SDS011;4507;40.232;29.132;2023-02-28T15:03:27;50.37;;;33.63;;
8944;SDS011;4507;40.232;29.132;2023-02-28T15:06:03;74.70;;;52.20;;
8944;SDS011;4507;40.232;29.132;2023-02-28T15:08:33;87.40;;;62.37;;
8944;SDS011;4507;40.232;29.132;2023-02-28T15:11:05;94.30;;;66.87;;
8944;SDS011;4507;40.232;29.132;2023-02-28T15:13:42;51.83;;;36.47;;
8944;SDS011;4507;40.232;29.132;2023-02-28T15:16:13;37.80;;;24.27;;
8944;SDS011;4507;40.232;29.132;2023-02-28T15:18:46;39.03;;;22.57;;
8944;SDS011;4507;40.232;29.132;2023-02-28T15:21:19;41.67;;;21.77;;
8944;SDS011;4507;40.232;29.132;2023-02-28T15:23:51;40.37;;;21.63;;
8944;SDS011;4507;40.232;29.132;2023-02-28T15:26:27;36.67;;;21.07;;
8944;SDS011;4507;40.232;29.132;2023-02-28T15:29:00;37.90;;;21.47;;
8944;SDS011;4507;40.232;29.132;2023-02-28T15:31:33;47.73;;;23.47;;
8944;SDS011;4507;40.232;29.132;2023-02-28T15:34:22;55.40;;;23.93;;
8944;SDS011;4507;40.232;29.132;2023-02-28T15:37:06;57.47;;;25.23;;